Time;durP1;ratioP1;P1;durP2;ratioP2;P2;SDS_P1;SDS_P2;PMS_P1;PMS_P2;Temp;Humidity;BMP_temperature;BMP_pressure;BME280_temperature;BME280_humidity;BME280_pressure;Samples;Min_cycle;Max_cycle;Signal;HPM_P1;HPM_P2
2022/04/19 00:00:41;;;;;;;16.48;9.57;;;9.40;99.90;;;;;;5075917;28;20053;-86
2022/04/19 00:03:08;;;;;;;16.75;9.90;;;9.40;99.90;;;;;;5075480;28;20045;-86
2022/04/19 00:05:35;;;;;;;15.85;9.50;;;9.50;99.90;;;;;;5077030;28;20041;-87
2022/04/19 00:08:05;;;;;;;14.82;9.43;;;9.30;99.90;;;;;;5075185;28;20040;-84
2022/04/19 00:10:31;;;;;;;16.73;9.95;;;9.30;99.90;;;;;;5076878;28;20044;-84
2022/04/19 00:12:59;;;;;;;14.32;9.60;;;9.30;99.90;;;;;;5076388;28;20048;-83
2022/04/19 00:15:29;;;;;;;14.70;9.40;;;9.30;99.90;;;;;;5076719;28;20419;-86
2022/04/19 00:17:59;;;;;;;16.85;9.77;;;9.20;99.90;;;;;;5076789;28;20518;-85
2022/04/19 00:20:25;;;;;;;16.00;9.68;;;9.20;99.90;;;;;;5076442;28;20052;-83
2022/04/19 00:22:52;;;;;;;16.90;9.93;;;9.20;99.90;;;;;;5076863;28;20047;-84
2022/04/19 00:25:18;;;;;;;15.27;10.10;;;9.20;99.90;;;;;;5076730;28;20032;-84
2022/04/19 00:27:44;;;;;;;16.27;9.57;;;9.10;99.90;;;;;;5076637;28;20041;-83
2022/04/19 00:30:11;;;;;;;15.90;9.73;;;9.20;99.90;;;;;;5075383;28;20089;-83
2022/04/19 00:32:37;;;;;;;16.17;9.63;;;9.10;99.90;;;;;;5076315;28;20119;-83
2022/04/19 00:35:05;;;;;;;15.57;9.63;;;9.10;99.90;;;;;;5058514;28;20479;-83
2022/04/19 00:37:33;;;;;;;14.80;9.88;;;9.00;99.90;;;;;;5074770;28;20053;-84
2022/04/19 00:40:00;;;;;;;15.52;10.35;;;9.00;99.90;;;;;;5075025;28;20048;-84
2022/04/19 00:42:28;;;;;;;16.10;10.10;;;9.00;99.90;;;;;;5076376;28;20472;-85
2022/04/19 00:44:59;;;;;;;17.98;10.32;;;8.90;99.90;;;;;;5076511;28;20079;-85
2022/04/19 00:47:25;;;;;;;17.85;9.93;;;8.90;99.90;;;;;;5074791;28;20115;-87
2022/04/19 00:49:52;;;;;;;17.27;9.27;;;8.80;99.90;;;;;;5074471;28;20055;-87
2022/04/19 00:52:19;;;;;;;16.38;10.27;;;8.80;99.90;;;;;;5074271;28;20048;-83
2022/04/19 00:54:48;;;;;;;15.32;9.60;;;8.70;99.90;;;;;;5075577;28;20467;-84
2022/04/19 00:57:14;;;;;;;15.45;9.43;;;9.10;99.90;;;;;;5074020;28;20052;-86
2022/04/19 00:59:42;;;;;;;18.98;10.07;;;8.70;99.90;;;;;;5073845;28;20106;-86
2022/04/19 01:02:08;;;;;;;14.10;9.30;;;8.80;99.90;;;;;;5073972;28;20044;-83
2022/04/19 01:04:33;;;;;;;16.45;9.38;;;8.60;99.90;;;;;;5074458;28;20052;-84
2022/04/19 01:07:00;;;;;;;13.18;8.85;;;8.50;99.90;;;;;;5073715;28;20488;-83
2022/04/19 01:09:25;;;;;;;15.18;9.20;;;8.50;99.90;;;;;;5075116;28;20048;-84
2022/04/19 01:14:36;;;;;;;15.40;9.55;;;8.30;99.90;;;;;;5075185;28;20045;-84
2022/04/19 01:17:07;;;;;;;15.40;9.70;;;8.30;99.90;;;;;;5075147;28;20055;-84
2022/04/19 01:19:38;;;;;;;17.77;9.35;;;8.20;99.90;;;;;;5075109;28;20408;-84
2022/04/19 01:22:05;;;;;;;15.70;9.32;;;8.20;99.90;;;;;;5074950;28;20048;-84
2022/04/19 01:24:32;;;;;;;17.95;9.98;;;8.20;99.90;;;;;;5074947;28;20059;-87
2022/04/19 01:26:58;;;;;;;12.63;8.93;;;8.10;99.90;;;;;;5074772;28;20082;-84
2022/04/19 01:29:24;;;;;;;15.20;9.38;;;8.10;99.90;;;;;;5074863;28;20044;-84
2022/04/19 01:31:51;;;;;;;14.05;9.57;;;8.00;99.90;;;;;;5074911;28;20097;-83
2022/04/19 01:34:18;;;;;;;16.50;10.05;;;8.00;99.90;;;;;;5073322;28;20048;-87
2022/04/19 01:36:45;;;;;;;14.75;9.55;;;7.90;99.90;;;;;;5074907;28;20383;-83
2022/04/19 01:39:11;;;;;;;15.70;9.15;;;8.10;99.90;;;;;;5073430;28;20070;-83
2022/04/19 01:41:38;;;;;;;16.63;9.70;;;7.80;99.90;;;;;;5073988;28;20044;-86
2022/04/19 01:44:05;;;;;;;15.32;9.40;;;7.80;99.90;;;;;;5074953;28;20399;-83
2022/04/19 01:46:34;;;;;;;14.05;9.15;;;7.80;99.90;;;;;;5073294;28;20503;-86
2022/04/19 01:49:04;;;;;;;15.68;9.40;;;7.70;99.90;;;;;;5074458;28;20060;-83
2022/04/19 01:51:29;;;;;;;16.40;9.57;;;7.70;99.90;;;;;;5074314;28;20503;-85
2022/04/19 01:53:58;;;;;;;15.75;9.25;;;7.60;99.90;;;;;;5072869;28;20037;-84
2022/04/19 01:56:23;;;;;;;13.85;8.70;;;7.60;99.90;;;;;;5072789;28;20094;-83
2022/04/19 01:58:49;;;;;;;15.00;9.35;;;7.50;99.90;;;;;;5073927;28;20446;-84
2022/04/19 02:01:15;;;;;;;16.08;9.55;;;7.70;99.90;;;;;;5056364;28;20112;-83
2022/04/19 02:03:41;;;;;;;17.15;9.73;;;7.30;99.90;;;;;;5072814;28;20048;-84
2022/04/19 02:06:08;;;;;;;16.02;9.90;;;7.30;99.90;;;;;;5073871;28;20048;-84
2022/04/19 02:08:34;;;;;;;16.58;9.23;;;7.30;99.90;;;;;;5074421;28;20041;-84
2022/04/19 02:11:00;;;;;;;15.98;9.40;;;7.30;99.90;;;;;;5072683;28;20097;-84
2022/04/19 02:13:26;;;;;;;15.50;9.55;;;7.30;99.90;;;;;;5072866;28;20048;-84
2022/04/19 02:15:53;;;;;;;16.88;10.27;;;7.20;99.90;;;;;;5072869;28;20044;-84
2022/04/19 02:18:19;;;;;;;14.98;9.27;;;7.20;99.90;;;;;;5074366;28;20101;-83
2022/04/19 02:20:45;;;;;;;15.00;9.13;;;7.30;99.90;;;;;;5074718;28;20392;-84
2022/04/19 02:23:14;;;;;;;16.15;9.45;;;7.20;99.90;;;;;;5055388;28;20040;-85
2022/04/19 02:25:40;;;;;;;16.23;9.63;;;7.10;99.90;;;;;;5072835;28;20048;-84
2022/04/19 02:28:06;;;;;;;15.98;10.13;;;7.10;99.90;;;;;;5056044;28;20055;-84
2022/04/19 02:30:32;;;;;;;15.43;9.70;;;7.10;99.90;;;;;;5074204;28;20083;-83
2022/04/19 02:32:58;;;;;;;17.25;9.48;;;7.00;99.90;;;;;;5072702;28;20072;-84
2022/04/19 02:35:26;;;;;;;16.45;9.07;;;7.10;99.90;;;;;;5073913;28;20044;-84
2022/04/19 02:37:53;;;;;;;17.52;9.25;;;7.00;99.90;;;;;;5074114;28;20051;-86
2022/04/19 02:40:20;;;;;;;14.65;8.93;;;7.00;99.90;;;;;;5073966;28;20046;-83
2022/04/19 02:42:47;;;;;;;18.85;10.32;;;7.00;99.90;;;;;;5074322;28;20052;-83
2022/04/19 02:45:13;;;;;;;17.00;9.90;;;7.00;99.90;;;;;;5074099;28;20040;-84
2022/04/19 02:47:41;;;;;;;18.63;10.32;;;6.90;99.90;;;;;;5072550;28;20120;-85
2022/04/19 02:50:07;;;;;;;20.20;11.25;;;6.90;99.90;;;;;;5073983;28;20048;-83
2022/04/19 02:52:32;;;;;;;16.30;10.13;;;6.80;99.90;;;;;;5056004;28;20454;-85
2022/04/19 02:54:58;;;;;;;16.27;10.52;;;6.80;99.90;;;;;;5072363;28;20049;-85
2022/04/19 02:57:24;;;;;;;17.63;10.48;;;6.70;99.90;;;;;;5072154;28;20053;-85
2022/04/19 02:59:50;;;;;;;17.63;10.70;;;6.70;99.90;;;;;;5073985;28;20400;-83
2022/04/19 03:02:18;;;;;;;21.55;11.60;;;6.70;99.90;;;;;;5072892;28;20127;-84
2022/04/19 03:04:44;;;;;;;24.98;13.43;;;6.70;99.90;;;;;;5073836;28;20377;-83
2022/04/19 03:07:09;;;;;;;29.05;14.48;;;6.60;99.90;;;;;;5074922;28;20051;-84
2022/04/19 03:09:35;;;;;;;31.70;16.35;;;6.70;99.90;;;;;;5073065;28;20439;-86
2022/04/19 03:12:01;;;;;;;32.75;17.90;;;6.70;99.90;;;;;;5074508;28;20373;-84
2022/04/19 03:14:27;;;;;;;37.20;18.35;;;6.90;99.90;;;;;;5073984;28;20045;-86
2022/04/19 03:16:53;;;;;;;36.40;17.65;;;6.80;99.90;;;;;;5073648;28;20041;-83
2022/04/19 03:19:19;;;;;;;35.92;18.55;;;6.80;99.90;;;;;;5072594;28;20047;-85
2022/04/19 03:21:45;;;;;;;36.72;17.80;;;6.80;99.90;;;;;;5072654;28;20443;-84
2022/04/19 03:29:39;;;;;;;29.55;14.80;;;6.90;99.90;;;;;;5072732;28;20052;-83
2022/04/19 03:32:05;;;;;;;27.38;15.18;;;7.00;99.90;;;;;;5074973;28;20383;-84
2022/04/19 03:34:30;;;;;;;26.85;14.10;;;7.00;99.90;;;;;;5074981;28;20574;-83
2022/04/19 03:36:56;;;;;;;26.45;14.20;;;7.10;99.90;;;;;;5077489;28;20090;-83
2022/04/19 03:39:22;;;;;;;23.92;13.43;;;7.20;99.90;;;;;;5076361;28;20053;-83
2022/04/19 03:41:47;;;;;;;26.63;13.63;;;7.20;99.90;;;;;;5077010;28;20045;-83
2022/04/19 03:44:13;;;;;;;25.10;13.45;;;7.10;99.90;;;;;;5077105;28;20041;-83
2022/04/19 03:49:26;;;;;;;22.92;12.10;;;7.10;99.90;;;;;;5075457;28;20052;-86
2022/04/19 03:51:52;;;;;;;23.52;12.65;;;7.50;99.90;;;;;;5087851;28;20049;-84
2022/04/19 03:54:17;;;;;;;23.05;12.43;;;7.10;99.90;;;;;;5075416;28;20045;-83
2022/04/19 03:56:44;;;;;;;24.77;12.15;;;7.10;99.90;;;;;;5075343;28;20045;-84
2022/04/19 03:59:10;;;;;;;24.50;12.43;;;7.10;99.90;;;;;;5076261;28;20050;-85
2022/04/19 04:01:39;;;;;;;23.10;12.35;;;7.10;99.90;;;;;;5058943;28;20044;-85
2022/04/19 04:04:07;;;;;;;24.33;12.25;;;7.10;99.90;;;;;;5075280;28;20052;-83
2022/04/19 04:06:35;;;;;;;24.77;12.10;;;7.40;99.90;;;;;;5076763;28;20044;-83
2022/04/19 04:09:01;;;;;;;22.85;11.82;;;7.10;99.90;;;;;;5075505;28;20051;-84
2022/04/19 04:11:27;;;;;;;22.83;10.70;;;7.10;99.90;;;;;;5075154;28;20049;-85
2022/04/19 04:13:53;;;;;;;22.77;11.88;;;7.20;99.90;;;;;;5080131;28;20051;-83
2022/04/19 04:16:18;;;;;;;21.45;10.85;;;7.00;99.90;;;;;;5066893;28;20076;-86
2022/04/19 04:18:44;;;;;;;19.33;10.75;;;7.00;99.90;;;;;;5075160;28;20052;-83
2022/04/19 04:21:10;;;;;;;23.17;11.57;;;7.00;99.90;;;;;;5075072;28;20087;-84
2022/04/19 04:23:35;;;;;;;19.75;11.32;;;7.00;99.90;;;;;;5074736;28;20067;-87
2022/04/19 04:26:01;;;;;;;24.13;10.98;;;7.00;99.90;;;;;;5075109;28;20076;-83
2022/04/19 04:28:26;;;;;;;20.42;11.23;;;7.10;99.90;;;;;;5074350;28;20483;-83
2022/04/19 04:30:52;;;;;;;24.13;11.40;;;6.90;99.90;;;;;;5075148;28;20120;-83
2022/04/19 04:33:18;;;;;;;21.52;11.13;;;6.90;99.90;;;;;;5081594;28;20041;-86
2022/04/19 04:35:44;;;;;;;20.55;10.70;;;6.90;99.90;;;;;;5062614;28;20048;-83
2022/04/19 04:38:09;;;;;;;18.20;10.20;;;6.90;99.90;;;;;;5077982;28;20040;-86
2022/04/19 04:40:35;;;;;;;22.30;10.75;;;6.90;99.90;;;;;;5075861;28;20483;-84
2022/04/19 04:43:00;;;;;;;21.42;10.38;;;6.90;99.90;;;;;;5075682;28;20037;-83
2022/04/19 04:45:26;;;;;;;19.33;11.52;;;6.80;99.90;;;;;;5073547;28;20078;-83
2022/04/19 04:50:36;;;;;;;17.17;9.90;;;6.80;99.90;;;;;;5075272;28;20044;-85
2022/04/19 04:53:02;;;;;;;17.42;9.30;;;6.80;99.90;;;;;;5074089;28;20047;-84
2022/04/19 04:55:28;;;;;;;18.98;9.82;;;6.80;99.90;;;;;;5074001;28;20131;-86
2022/04/19 04:57:58;;;;;;;16.85;9.43;;;6.80;99.90;;;;;;5075303;28;20044;-86
2022/04/19 05:00:27;;;;;;;19.02;9.75;;;6.80;99.90;;;;;;5075291;28;20052;-83
2022/04/19 05:02:55;;;;;;;17.42;9.00;;;6.90;99.90;;;;;;5074279;28;20418;-86
2022/04/19 05:05:21;;;;;;;16.88;9.25;;;6.90;99.90;;;;;;5074958;28;20048;-84
2022/04/19 05:07:47;;;;;;;16.02;9.00;;;6.90;99.90;;;;;;5075166;28;20091;-84
2022/04/19 05:10:14;;;;;;;17.10;9.57;;;7.20;99.90;;;;;;5073578;28;20047;-84
2022/04/19 05:12:40;;;;;;;16.58;8.73;;;6.90;99.90;;;;;;5074808;28;20041;-86
2022/04/19 05:15:06;;;;;;;16.50;9.00;;;7.00;99.90;;;;;;5074958;28;20050;-83
2022/04/19 05:17:32;;;;;;;14.80;9.35;;;7.00;99.90;;;;;;5074844;28;20032;-83
2022/04/19 05:19:57;;;;;;;18.85;9.32;;;7.10;99.90;;;;;;5073247;28;20492;-83
2022/04/19 05:22:23;;;;;;;15.55;8.43;;;7.10;99.90;;;;;;5073947;28;20178;-83
2022/04/19 05:24:49;;;;;;;14.73;8.45;;;7.10;99.90;;;;;;5075083;28;20045;-83
2022/04/19 05:27:15;;;;;;;16.27;8.80;;;7.10;99.90;;;;;;5074998;28;20044;-86
2022/04/19 05:29:41;;;;;;;13.88;8.38;;;7.30;99.90;;;;;;5073304;28;20484;-85
2022/04/19 05:32:07;;;;;;;17.02;8.38;;;7.20;99.90;;;;;;5074929;28;20380;-83
2022/04/19 05:34:32;;;;;;;13.52;8.05;;;7.20;99.90;;;;;;5073528;28;20094;-84
2022/04/19 05:36:58;;;;;;;14.02;7.95;;;7.30;99.90;;;;;;5056963;28;20373;-84
2022/04/19 05:39:24;;;;;;;14.63;8.27;;;7.30;99.90;;;;;;5074524;28;20040;-83
2022/04/19 05:41:49;;;;;;;15.10;8.07;;;7.40;99.90;;;;;;5073509;28;20064;-84
2022/04/19 05:44:15;;;;;;;14.85;8.05;;;7.50;99.90;;;;;;5074489;28;20082;-83
2022/04/19 05:46:41;;;;;;;13.75;7.60;;;7.70;99.90;;;;;;5074550;28;20042;-83
2022/04/19 05:49:06;;;;;;;14.77;8.07;;;7.70;99.90;;;;;;5074609;28;20079;-84
2022/04/19 05:51:33;;;;;;;13.10;8.25;;;7.80;99.90;;;;;;5074608;28;20082;-85
2022/04/19 05:53:59;;;;;;;13.35;7.90;;;7.80;99.90;;;;;;5073227;28;20065;-84
2022/04/19 05:56:24;;;;;;;13.13;8.02;;;7.90;99.90;;;;;;5073337;28;20049;-84
2022/04/19 05:58:50;;;;;;;14.85;7.85;;;8.00;99.90;;;;;;5073175;28;20088;-84
2022/04/19 06:01:16;;;;;;;16.23;8.45;;;8.10;99.90;;;;;;5072426;28;20098;-87
2022/04/19 06:06:26;;;;;;;15.18;8.40;;;8.40;99.90;;;;;;5072407;28;20079;-86
2022/04/19 06:08:53;;;;;;;16.80;9.00;;;8.50;99.90;;;;;;5072938;28;20133;-83
2022/04/19 06:11:19;;;;;;;13.90;8.02;;;8.60;99.90;;;;;;5073826;28;20098;-86
2022/04/19 06:13:45;;;;;;;13.95;8.45;;;8.70;99.90;;;;;;5072385;28;20040;-84
2022/04/19 06:16:11;;;;;;;14.40;8.60;;;8.80;99.90;;;;;;5072960;28;20131;-84
2022/04/19 06:18:36;;;;;;;13.02;8.43;;;8.90;99.90;;;;;;5055566;28;20439;-85
2022/04/19 06:21:04;;;;;;;14.40;8.63;;;9.00;99.90;;;;;;5072506;28;20053;-84
2022/04/19 06:23:31;;;;;;;15.60;8.50;;;9.10;99.90;;;;;;5073836;28;20044;-84
2022/04/19 06:25:56;;;;;;;14.40;8.90;;;9.20;99.90;;;;;;5073607;28;20048;-83
2022/04/19 06:28:22;;;;;;;13.32;8.60;;;9.40;99.90;;;;;;5072049;28;20479;-84
2022/04/19 06:30:48;;;;;;;15.05;9.13;;;9.70;99.90;;;;;;5073760;28;20040;-85
2022/04/19 06:33:14;;;;;;;17.15;8.95;;;9.50;99.90;;;;;;5072423;28;20052;-84
2022/04/19 06:35:39;;;;;;;14.70;9.00;;;9.90;99.90;;;;;;5072231;28;20053;-84
2022/04/19 06:38:05;;;;;;;16.45;8.63;;;9.80;99.90;;;;;;5073619;28;20076;-84
2022/04/19 06:40:31;;;;;;;15.30;8.80;;;9.90;99.90;;;;;;5072383;28;20431;-86
2022/04/19 06:42:57;;;;;;;14.45;8.77;;;9.90;99.90;;;;;;5072333;28;20072;-86
2022/04/19 06:45:24;;;;;;;15.48;8.80;;;10.00;99.90;;;;;;5074278;28;20464;-84
2022/04/19 06:48:02;;;;;;;17.60;8.98;;;10.10;99.90;;;;;;5073444;28;20093;-84
2022/04/19 06:50:29;;;;;;;14.35;8.90;;;10.20;99.90;;;;;;5072355;28;20139;-84
2022/04/19 06:52:55;;;;;;;16.02;9.20;;;10.30;99.90;;;;;;5072039;28;20040;-84
2022/04/19 06:55:21;;;;;;;13.65;9.20;;;10.40;99.90;;;;;;5073426;28;20037;-86
2022/04/19 06:57:48;;;;;;;15.30;9.45;;;10.60;99.90;;;;;;5071809;28;20057;-84
2022/04/19 07:00:16;;;;;;;16.52;9.50;;;10.80;99.90;;;;;;5071824;28;20139;-85
2022/04/19 07:02:44;;;;;;;15.25;8.80;;;10.80;99.90;;;;;;5072181;28;20048;-84
2022/04/19 07:05:10;;;;;;;16.42;9.65;;;10.90;99.90;;;;;;5072115;28;20053;-85
2022/04/19 07:07:39;;;;;;;15.80;9.70;;;11.00;99.90;;;;;;5071842;28;20072;-84
2022/04/19 07:10:06;;;;;;;14.30;9.07;;;11.20;99.90;;;;;;5075148;28;20545;-84
2022/04/19 07:12:32;;;;;;;15.27;9.18;;;11.20;99.90;;;;;;5076346;28;20052;-83
2022/04/19 07:14:57;;;;;;;16.15;9.30;;;11.30;99.90;;;;;;5059410;28;20131;-84
2022/04/19 07:17:23;;;;;;;14.98;9.52;;;11.50;99.90;;;;;;5077436;28;20080;-84
2022/04/19 07:28:02;;;;;;;14.07;8.80;;;11.70;99.90;;;;;;5076748;28;20123;-85
2022/04/19 07:30:29;;;;;;;16.25;9.23;;;11.80;99.90;;;;;;5076690;28;20495;-85
2022/04/19 07:32:55;;;;;;;15.48;8.40;;;12.00;99.90;;;;;;5075576;28;20041;-84
2022/04/19 07:35:21;;;;;;;14.23;8.93;;;12.10;99.90;;;;;;5075133;28;20044;-86
2022/04/19 07:37:46;;;;;;;12.48;8.00;;;12.50;99.90;;;;;;5075431;28;20047;-87
2022/04/19 07:40:12;;;;;;;13.80;8.35;;;12.30;99.90;;;;;;5075151;28;20479;-86
2022/04/19 07:42:38;;;;;;;14.38;8.57;;;12.50;99.90;;;;;;5075144;28;20079;-85
2022/04/19 07:45:04;;;;;;;14.25;8.50;;;12.50;99.90;;;;;;5075085;28;20090;-84
2022/04/19 07:47:32;;;;;;;12.07;7.43;;;12.60;99.90;;;;;;5058565;28;20044;-84
2022/04/19 07:49:58;;;;;;;11.95;7.03;;;12.60;99.90;;;;;;5075128;28;20102;-85
2022/04/19 07:52:24;;;;;;;13.60;7.88;;;12.70;99.90;;;;;;5074826;28;20044;-84
2022/04/19 07:54:50;;;;;;;13.98;7.75;;;13.00;99.90;;;;;;5074636;28;20131;-84
2022/04/19 07:57:22;;;;;;;12.57;7.38;;;13.10;99.90;;;;;;5076908;28;20040;-84
2022/04/19 07:59:53;;;;;;;13.90;7.57;;;12.90;99.90;;;;;;5076432;28;20052;-84
2022/04/19 08:02:19;;;;;;;12.60;6.50;;;13.00;99.90;;;;;;5074819;28;20048;-84
2022/04/19 08:04:45;;;;;;;15.70;7.22;;;13.10;99.90;;;;;;5076001;28;20530;-84
2022/04/19 08:07:11;;;;;;;11.15;6.85;;;13.20;99.90;;;;;;5075992;28;20076;-87
2022/04/19 08:09:37;;;;;;;11.02;6.72;;;13.30;99.90;;;;;;5074685;28;20071;-84
2022/04/19 08:12:03;;;;;;;12.55;7.22;;;13.40;99.90;;;;;;5075833;28;20488;-88
2022/04/19 08:14:28;;;;;;;11.70;6.65;;;13.40;99.90;;;;;;5074392;28;20127;-84
2022/04/19 08:16:54;;;;;;;12.50;7.45;;;13.60;99.90;;;;;;5074646;28;20127;-84
2022/04/19 08:19:19;;;;;;;13.00;6.60;;;13.60;99.90;;;;;;5073880;28;20170;-84
2022/04/19 08:21:45;;;;;;;12.85;6.78;;;13.80;99.90;;;;;;5073611;28;20040;-84
2022/04/19 08:24:11;;;;;;;11.32;6.53;;;13.90;99.90;;;;;;5075919;28;20064;-84
2022/04/19 08:26:37;;;;;;;13.80;8.65;;;13.80;99.90;;;;;;5075595;28;20104;-84
2022/04/19 08:29:02;;;;;;;11.82;6.70;;;14.10;99.90;;;;;;5076758;28;20036;-84
2022/04/19 08:31:28;;;;;;;12.77;7.20;;;14.10;99.90;;;;;;5075292;28;20044;-84
2022/04/19 08:33:54;;;;;;;11.52;6.80;;;14.30;99.90;;;;;;5080702;28;20044;-84
2022/04/19 08:36:19;;;;;;;13.10;6.70;;;14.40;99.90;;;;;;5074328;28;20056;-84
2022/04/19 08:38:47;;;;;;;13.40;6.85;;;14.40;99.90;;;;;;5073733;28;20074;-85
2022/04/19 08:41:18;;;;;;;12.93;6.47;;;14.50;99.90;;;;;;5074192;28;20052;-85
2022/04/19 08:43:45;;;;;;;12.30;6.57;;;14.60;99.90;;;;;;5073743;28;20105;-86
2022/04/19 08:46:11;;;;;;;12.15;6.53;;;14.60;99.90;;;;;;5075218;28;20047;-84
2022/04/19 08:48:39;;;;;;;12.93;6.20;;;14.80;99.90;;;;;;5074992;28;20049;-87
2022/04/19 08:51:06;;;;;;;13.52;6.65;;;14.90;99.90;;;;;;5080639;28;20068;-84
2022/04/19 08:59:04;;;;;;;10.73;5.85;;;15.10;99.90;;;;;;5073093;28;20053;-84
2022/04/19 09:01:30;;;;;;;9.20;5.43;;;15.30;99.90;;;;;;5074437;28;20560;-84
2022/04/19 09:03:56;;;;;;;9.57;5.57;;;15.20;99.90;;;;;;5056690;28;20048;-84
2022/04/19 09:06:24;;;;;;;10.05;5.18;;;15.30;99.90;;;;;;5056548;28;20051;-87
2022/04/19 09:09:09;;;;;;;10.25;4.82;;;15.50;99.90;;;;;;5074625;28;20036;-84
2022/04/19 09:11:35;;;;;;;8.18;4.13;;;15.70;99.90;;;;;;5074729;28;20416;-84
2022/04/19 09:14:05;;;;;;;8.77;4.65;;;15.60;99.90;;;;;;5039776;28;20033;-84
2022/04/19 09:16:31;;;;;;;7.93;4.43;;;15.60;99.90;;;;;;5060492;28;20127;-84
2022/04/19 09:18:57;;;;;;;8.05;4.10;;;15.70;99.90;;;;;;5074985;28;20480;-84
2022/04/19 09:21:36;;;;;;;9.65;4.22;;;15.80;99.90;;;;;;5056844;28;20047;-84
2022/04/19 09:24:14;;;;;;;8.15;4.40;;;15.90;99.90;;;;;;5056558;28;20048;-84
2022/04/19 09:26:50;;;;;;;8.55;4.50;;;15.90;99.90;;;;;;5056535;28;20044;-84
2022/04/19 09:29:23;;;;;;;6.47;3.72;;;15.90;99.90;;;;;;5055877;28;20033;-84
2022/04/19 09:31:51;;;;;;;8.02;4.03;;;16.20;99.90;;;;;;5055953;28;20044;-84
2022/04/19 09:34:24;;;;;;;6.70;3.70;;;16.20;99.90;;;;;;5074231;28;20115;-84
2022/04/19 09:37:10;;;;;;;6.63;3.17;;;16.40;99.90;;;;;;5056129;28;20044;-84
2022/04/19 09:39:37;;;;;;;8.70;3.67;;;16.50;99.90;;;;;;5074233;28;20044;-84
2022/04/19 09:42:14;;;;;;;8.93;4.00;;;16.60;99.90;;;;;;5074217;28;20036;-87
2022/04/19 09:44:49;;;;;;;8.07;3.90;;;16.70;99.90;;;;;;5074228;28;20044;-85
2022/04/19 09:47:15;;;;;;;6.22;3.38;;;16.80;99.90;;;;;;5074316;28;20052;-84
2022/04/19 09:49:48;;;;;;;8.77;4.22;;;16.80;99.90;;;;;;5074156;28;20101;-87
2022/04/19 09:52:36;;;;;;;5.63;3.13;;;16.80;99.90;;;;;;5055752;28;20181;-85
2022/04/19 09:55:04;;;;;;;6.68;3.53;;;17.00;99.90;;;;;;5039279;28;20102;-88
2022/04/19 09:57:32;;;;;;;8.95;3.60;;;17.10;99.90;;;;;;5056160;28;20062;-88
2022/04/19 09:59:59;;;;;;;6.35;3.08;;;17.10;99.90;;;;;;5035926;28;20064;-88
2022/04/19 10:10:59;;;;;;;6.35;3.60;;;17.50;99.90;;;;;;4992476;28;20469;-87
2022/04/19 10:13:25;;;;;;;6.45;3.20;;;17.60;99.80;;;;;;4975994;28;20462;-85
2022/04/19 10:15:52;;;;;;;6.72;3.30;;;17.60;99.80;;;;;;4975827;28;20050;-84
2022/04/19 10:18:18;;;;;;;7.28;3.28;;;17.60;97.80;;;;;;4991993;28;20064;-84
2022/04/19 10:20:55;;;;;;;4.10;2.08;;;17.70;98.00;;;;;;4975681;28;20132;-85
2022/04/19 10:23:31;;;;;;;5.68;3.03;;;17.70;94.90;;;;;;4975879;28;20105;-84
2022/04/19 10:26:12;;;;;;;6.25;3.20;;;17.70;95.80;;;;;;4975735;28;20063;-87
2022/04/19 10:28:38;;;;;;;4.80;2.67;;;17.90;96.70;;;;;;4975841;28;20046;-84
2022/04/19 10:31:04;;;;;;;4.45;2.50;;;17.90;96.20;;;;;;4992097;28;20498;-84
2022/04/19 10:33:39;;;;;;;5.60;3.13;;;18.00;96.50;;;;;;4992018;28;20057;-84
2022/04/19 10:36:16;;;;;;;5.45;2.90;;;17.90;95.50;;;;;;4975576;28;20051;-87
2022/04/19 10:38:44;;;;;;;7.22;2.08;;;18.10;97.30;;;;;;4975573;28;20086;-84
2022/04/19 10:41:10;;;;;;;4.30;2.10;;;18.10;96.70;;;;;;4975796;28;20089;-84
2022/04/19 10:43:35;;;;;;;5.22;2.08;;;18.20;96.00;;;;;;4976642;28;20525;-84
2022/04/19 10:46:21;;;;;;;3.42;2.10;;;18.40;95.50;;;;;;5054693;28;20045;-88
2022/04/19 10:49:23;;;;;;;5.65;2.50;;;18.40;93.20;;;;;;5041938;28;20055;-84
2022/04/19 10:51:52;;;;;;;4.57;2.05;;;18.50;92.40;;;;;;4960324;28;20062;-84
2022/04/19 10:54:55;;;;;;;4.50;2.08;;;18.50;90.00;;;;;;4943984;28;20537;-84
2022/04/19 11:00:27;;;;;;;3.63;1.90;;;18.50;87.20;;;;;;4976197;28;20054;-85
2022/04/19 11:03:00;;;;;;;4.57;2.08;;;18.80;82.50;;;;;;4959980;28;20133;-89
2022/04/19 11:05:48;;;;;;;4.85;1.80;;;18.90;83.50;;;;;;4960091;28;20129;-84
2022/04/19 11:08:25;;;;;;;3.15;1.50;;;19.10;83.00;;;;;;4959833;28;20055;-88
2022/04/19 11:11:02;;;;;;;2.38;1.20;;;19.20;76.20;;;;;;4976223;28;20043;-88
2022/04/19 11:13:35;;;;;;;2.25;1.13;;;19.20;73.50;;;;;;4976005;28;20069;-85
2022/04/19 11:16:03;;;;;;;4.03;1.65;;;19.20;74.00;;;;;;4959866;28;20059;-85
2022/04/19 11:18:33;;;;;;;2.63;1.40;;;19.00;71.90;;;;;;4959602;28;20043;-85
2022/04/19 11:21:02;;;;;;;3.55;1.70;;;19.00;70.60;;;;;;4960458;28;20059;-84
2022/04/19 11:23:31;;;;;;;4.05;1.65;;;19.10;73.60;;;;;;4959657;28;20062;-85
2022/04/19 11:25:57;;;;;;;2.33;1.17;;;19.10;73.10;;;;;;4975916;28;20047;-85
2022/04/19 11:28:28;;;;;;;3.00;1.58;;;19.00;72.00;;;;;;5002408;28;20060;-84
2022/04/19 11:30:57;;;;;;;3.13;1.52;;;18.90;70.90;;;;;;5076751;28;20036;-85
2022/04/19 11:33:23;;;;;;;2.55;1.30;;;19.20;70.20;;;;;;5076419;28;20510;-88
2022/04/19 11:36:05;;;;;;;4.63;1.27;;;19.30;70.20;;;;;;5075107;28;20500;-84
2022/04/19 11:38:33;;;;;;;2.38;1.27;;;19.60;69.00;;;;;;5075366;28;20040;-84
2022/04/19 11:46:57;;;;;;;2.08;1.25;;;19.60;68.10;;;;;;5034249;28;20132;-85
2022/04/19 11:49:22;;;;;;;2.42;1.40;;;19.80;68.30;;;;;;5017956;28;20053;-85
2022/04/19 11:51:53;;;;;;;1.90;1.10;;;19.70;67.50;;;;;;5017768;28;20610;-84
2022/04/19 11:54:23;;;;;;;2.60;1.60;;;19.90;66.90;;;;;;5017076;28;20050;-88
2022/04/19 11:56:51;;;;;;;3.13;1.50;;;20.10;67.90;;;;;;5017231;28;20049;-85
2022/04/19 11:59:16;;;;;;;3.58;1.83;;;20.10;67.50;;;;;;5017126;28;20507;-85
2022/04/19 12:01:49;;;;;;;3.63;1.67;;;20.20;67.10;;;;;;5017585;28;20089;-84
2022/04/19 12:04:14;;;;;;;6.22;1.77;;;20.30;66.70;;;;;;5033748;28;20054;-84
2022/04/19 12:06:48;;;;;;;3.20;1.75;;;20.30;66.40;;;;;;5033692;28;20041;-85
2022/04/19 12:09:16;;;;;;;3.88;1.30;;;20.30;65.40;;;;;;5017104;28;20108;-88
2022/04/19 12:11:42;;;;;;;3.45;1.58;;;20.50;67.30;;;;;;5017331;28;20061;-84
2022/04/19 12:14:07;;;;;;;5.38;1.83;;;20.80;67.90;;;;;;5016892;28;20049;-85
2022/04/19 12:16:39;;;;;;;3.00;1.90;;;20.40;65.50;;;;;;5018667;28;20049;-84
2022/04/19 12:19:07;;;;;;;3.25;1.50;;;20.60;66.60;;;;;;5074400;28;20048;-84
2022/04/19 12:21:44;;;;;;;4.38;1.30;;;20.40;66.50;;;;;;5079974;28;20044;-84
2022/04/19 12:24:31;;;;;;;2.80;1.45;;;20.50;67.40;;;;;;5075966;28;20055;-85
2022/04/19 12:27:03;;;;;;;4.07;1.80;;;20.70;66.00;;;;;;5075968;28;20049;-85
2022/04/19 12:29:29;;;;;;;4.65;1.90;;;20.50;66.40;;;;;;5074269;28;20507;-84
2022/04/19 12:32:00;;;;;;;3.15;1.63;;;20.70;66.80;;;;;;5074312;28;20044;-85
2022/04/19 12:34:32;;;;;;;4.68;1.80;;;20.90;68.30;;;;;;5075385;28;20041;-84
2022/04/19 12:37:08;;;;;;;4.07;1.92;;;21.00;68.10;;;;;;5074550;28;20127;-83
2022/04/19 12:39:34;;;;;;;3.40;1.92;;;20.90;66.30;;;;;;5057681;28;20116;-83
2022/04/19 12:42:11;;;;;;;3.70;1.80;;;21.10;68.60;;;;;;5057494;28;20052;-83
2022/04/19 12:44:39;;;;;;;4.63;1.90;;;20.90;67.00;;;;;;5057191;28;20492;-83
2022/04/19 12:47:14;;;;;;;2.95;1.50;;;21.10;68.80;;;;;;5057561;28;20117;-87
2022/04/19 12:49:45;;;;;;;6.25;1.85;;;21.30;67.50;;;;;;5075461;28;20047;-83
2022/04/19 12:52:11;;;;;;;4.03;2.05;;;21.10;66.80;;;;;;5060404;28;20053;-83
2022/04/19 12:54:43;;;;;;;3.17;1.90;;;21.30;66.90;;;;;;5075479;28;20071;-84
2022/04/19 12:57:23;;;;;;;2.88;1.80;;;21.50;67.50;;;;;;5074932;28;20614;-84
2022/04/19 12:59:50;;;;;;;3.25;1.95;;;21.30;64.20;;;;;;5074685;28;20505;-85
2022/04/19 13:02:17;;;;;;;4.88;1.90;;;21.10;65.40;;;;;;5073898;28;20041;-86
2022/04/19 13:04:43;;;;;;;3.05;1.77;;;21.30;65.60;;;;;;5077410;28;20052;-85
2022/04/19 13:12:38;;;;;;;3.33;2.10;;;21.70;67.00;;;;;;5073350;28;20480;-89
2022/04/19 13:15:05;;;;;;;4.65;2.28;;;21.70;66.20;;;;;;5074542;28;20043;-85
2022/04/19 13:17:33;;;;;;;3.97;2.35;;;21.70;66.70;;;;;;5078370;28;20041;-84
2022/04/19 13:19:59;;;;;;;3.42;2.15;;;21.60;65.80;;;;;;5073537;28;20114;-84
2022/04/19 13:22:25;;;;;;;3.05;1.85;;;21.90;67.50;;;;;;5074646;28;20044;-85
2022/04/19 13:24:50;;;;;;;5.07;1.77;;;21.80;66.10;;;;;;5074654;28;20123;-91
2022/04/19 13:27:17;;;;;;;4.25;1.70;;;22.00;65.40;;;;;;5073140;28;20132;-89
2022/04/19 13:29:43;;;;;;;4.30;1.65;;;21.90;64.30;;;;;;5073372;28;20472;-84
2022/04/19 13:32:11;;;;;;;3.03;1.88;;;22.00;65.00;;;;;;5073161;28;20039;-89
2022/04/19 13:34:39;;;;;;;2.65;1.60;;;21.80;63.40;;;;;;5073177;28;20048;-84
2022/04/19 13:37:06;;;;;;;4.15;1.60;;;21.70;63.20;;;;;;5074038;28;20087;-84
2022/04/19 13:39:32;;;;;;;3.65;1.83;;;21.70;64.00;;;;;;5073540;28;20068;-84